sensor_id;sensor_type;location;lat;lon;timestamp;pressure;altitude;pressure_sealevel;temperature;humidity
73862;BME280;63459;51.456;-0.916;2022-12-05T00:04:12;101398.62;;;18.26;22.70
73862;BME280;63459;51.456;-0.916;2022-12-05T00:06:37;101399.48;;;18.46;22.73
73862;BME280;63459;51.456;-0.916;2022-12-05T00:09:02;101399.26;;;18.88;22.77
73862;BME280;63459;51.456;-0.916;2022-12-05T00:11:29;101399.17;;;18.44;22.82
73862;BME280;63459;51.456;-0.916;2022-12-05T00:13:54;101395.16;;;18.27;22.80
73862;BME280;63459;51.456;-0.916;2022-12-05T00:16:19;101396.39;;;18.64;22.89
73862;BME280;63459;51.456;-0.916;2022-12-05T00:18:43;101397.17;;;18.57;23.00
73862;BME280;63459;51.456;-0.916;2022-12-05T00:21:15;101392.82;;;18.37;23.02
73862;BME280;63459;51.456;-0.916;2022-12-05T00:23:33;101393.73;;;18.41;23.01
73862;BME280;63459;51.456;-0.916;2022-12-05T00:28:24;101385.21;;;18.46;23.04
73862;BME280;63459;51.456;-0.916;2022-12-05T00:30:49;101383.66;;;18.64;23.12
73862;BME280;63459;51.456;-0.916;2022-12-05T00:33:15;101391.74;;;18.22;23.14
73862;BME280;63459;51.456;-0.916;2022-12-05T00:35:39;101388.49;;;18.21;23.15
73862;BME280;63459;51.456;-0.916;2022-12-05T00:38:05;101391.88;;;18.67;23.14
73862;BME280;63459;51.456;-0.916;2022-12-05T00:40:30;101390.25;;;18.64;23.19
73862;BME280;63459;51.456;-0.916;2022-12-05T00:45:21;101395.67;;;18.69;23.21
73862;BME280;63459;51.456;-0.916;2022-12-05T00:47:46;101397.76;;;18.23;23.25
73862;BME280;63459;51.456;-0.916;2022-12-05T00:52:37;101395.46;;;19.10;23.27
73862;BME280;63459;51.456;-0.916;2022-12-05T00:55:08;101391.52;;;18.47;23.26
73862;BME280;63459;51.456;-0.916;2022-12-05T00:57:34;101386.26;;;18.54;23.21
73862;BME280;63459;51.456;-0.916;2022-12-05T00:59:54;101387.47;;;18.54;23.22
73862;BME280;63459;51.456;-0.916;2022-12-05T01:02:19;101392.83;;;18.74;23.26
73862;BME280;63459;51.456;-0.916;2022-12-05T01:04:45;101389.17;;;18.59;23.22
73862;BME280;63459;51.456;-0.916;2022-12-05T01:07:10;101393.66;;;18.82;23.24
73862;BME280;63459;51.456;-0.916;2022-12-05T01:09:36;101392.47;;;18.58;23.27
73862;BME280;63459;51.456;-0.916;2022-12-05T01:14:27;101394.55;;;18.83;23.31
73862;BME280;63459;51.456;-0.916;2022-12-05T01:16:54;101390.41;;;18.75;23.38
73862;BME280;63459;51.456;-0.916;2022-12-05T01:19:20;101393.32;;;18.31;23.44
73862;BME280;63459;51.456;-0.916;2022-12-05T01:24:10;101400.45;;;18.74;23.50
73862;BME280;63459;51.456;-0.916;2022-12-05T01:26:34;101396.03;;;18.71;23.59
73862;BME280;63459;51.456;-0.916;2022-12-05T01:28:59;101404.14;;;18.70;23.62
73862;BME280;63459;51.456;-0.916;2022-12-05T01:31:28;101410.06;;;18.92;23.64
73862;BME280;63459;51.456;-0.916;2022-12-05T01:36:16;101405.86;;;18.29;23.70
73862;BME280;63459;51.456;-0.916;2022-12-05T01:38:41;101408.21;;;18.73;23.70
73862;BME280;63459;51.456;-0.916;2022-12-05T01:41:09;101413.27;;;18.51;23.74
73862;BME280;63459;51.456;-0.916;2022-12-05T01:43:32;101416.15;;;18.74;23.77
73862;BME280;63459;51.456;-0.916;2022-12-05T01:45:57;101419.82;;;18.52;23.82
73862;BME280;63459;51.456;-0.916;2022-12-05T01:48:24;101416.68;;;18.31;23.83
73862;BME280;63459;51.456;-0.916;2022-12-05T01:50:47;101416.31;;;18.41;23.77
73862;BME280;63459;51.456;-0.916;2022-12-05T01:53:12;101420.86;;;18.43;23.79
73862;BME280;63459;51.456;-0.916;2022-12-05T01:55:38;101419.50;;;18.87;23.80
73862;BME280;63459;51.456;-0.916;2022-12-05T01:58:05;101424.98;;;18.92;23.78
73862;BME280;63459;51.456;-0.916;2022-12-05T02:00:29;101420.02;;;19.13;23.80
73862;BME280;63459;51.456;-0.916;2022-12-05T02:02:56;101421.22;;;18.90;23.82
73862;BME280;63459;51.456;-0.916;2022-12-05T02:07:46;101425.96;;;19.14;23.85
73862;BME280;63459;51.456;-0.916;2022-12-05T02:10:11;101420.20;;;18.51;23.83
73862;BME280;63459;51.456;-0.916;2022-12-05T02:12:36;101419.08;;;19.18;23.86
73862;BME280;63459;51.456;-0.916;2022-12-05T02:15:13;101423.97;;;18.53;23.87
73862;BME280;63459;51.456;-0.916;2022-12-05T02:17:34;101423.08;;;18.52;23.91
73862;BME280;63459;51.456;-0.916;2022-12-05T02:22:35;101426.17;;;19.00;23.90
73862;BME280;63459;51.456;-0.916;2022-12-05T02:27:27;101426.42;;;18.75;23.92
73862;BME280;63459;51.456;-0.916;2022-12-05T02:32:05;101427.05;;;18.76;23.96
73862;BME280;63459;51.456;-0.916;2022-12-05T02:34:29;101427.20;;;18.67;24.10
73862;BME280;63459;51.456;-0.916;2022-12-05T02:36:56;101433.49;;;18.70;24.09
73862;BME280;63459;51.456;-0.916;2022-12-05T02:39:20;101428.67;;;18.87;24.15
73862;BME280;63459;51.456;-0.916;2022-12-05T02:41:47;101429.99;;;18.73;24.10
73862;BME280;63459;51.456;-0.916;2022-12-05T02:46:36;101431.68;;;18.75;24.13
73862;BME280;63459;51.456;-0.916;2022-12-05T02:48:59;101437.36;;;18.51;24.20
73862;BME280;63459;51.456;-0.916;2022-12-05T02:51:26;101435.51;;;19.21;24.17
73862;BME280;63459;51.456;-0.916;2022-12-05T02:53:49;101436.97;;;18.97;24.24
73862;BME280;63459;51.456;-0.916;2022-12-05T02:58:44;101441.05;;;18.74;24.30
73862;BME280;63459;51.456;-0.916;2022-12-05T03:03:29;101437.23;;;18.50;24.36
73862;BME280;63459;51.456;-0.916;2022-12-05T03:06:00;101434.29;;;18.94;24.36
73862;BME280;63459;51.456;-0.916;2022-12-05T03:08:22;101434.11;;;18.92;24.43
73862;BME280;63459;51.456;-0.916;2022-12-05T03:10:46;101435.80;;;19.15;24.41
73862;BME280;63459;51.456;-0.916;2022-12-05T03:13:15;101436.78;;;18.96;24.40
73862;BME280;63459;51.456;-0.916;2022-12-05T03:18:05;101435.73;;;18.77;24.39
73862;BME280;63459;51.456;-0.916;2022-12-05T03:20:32;101440.28;;;18.77;24.44
73862;BME280;63459;51.456;-0.916;2022-12-05T03:22:57;101438.31;;;18.85;24.37
73862;BME280;63459;51.456;-0.916;2022-12-05T03:59:19;101445.93;;;19.18;24.21
73862;BME280;63459;51.456;-0.916;2022-12-05T04:01:42;101450.57;;;18.95;24.21
73862;BME280;63459;51.456;-0.916;2022-12-05T04:04:09;101452.33;;;18.81;24.14
73862;BME280;63459;51.456;-0.916;2022-12-05T04:08:59;101458.27;;;18.99;24.13
73862;BME280;63459;51.456;-0.916;2022-12-05T04:13:49;101456.78;;;19.22;24.13
73862;BME280;63459;51.456;-0.916;2022-12-05T04:16:16;101460.60;;;19.21;24.16
73862;BME280;63459;51.456;-0.916;2022-12-05T04:18:46;101464.26;;;18.78;24.15
73862;BME280;63459;51.456;-0.916;2022-12-05T04:21:04;101461.22;;;18.84;24.12
73862;BME280;63459;51.456;-0.916;2022-12-05T04:26:05;101464.36;;;19.31;24.08
73862;BME280;63459;51.456;-0.916;2022-12-05T04:28:26;101462.31;;;19.36;24.05
73862;BME280;63459;51.456;-0.916;2022-12-05T04:30:48;101463.71;;;19.43;23.98
73862;BME280;63459;51.456;-0.916;2022-12-05T04:33:15;101461.85;;;19.26;23.93
73862;BME280;63459;51.456;-0.916;2022-12-05T04:35:40;101463.59;;;19.48;23.93
73862;BME280;63459;51.456;-0.916;2022-12-05T04:40:32;101468.10;;;18.84;23.90
73862;BME280;63459;51.456;-0.916;2022-12-05T04:42:54;101469.26;;;19.10;23.88
73862;BME280;63459;51.456;-0.916;2022-12-05T04:45:19;101473.91;;;19.37;23.84
73862;BME280;63459;51.456;-0.916;2022-12-05T04:47:47;101470.31;;;18.95;23.86
73862;BME280;63459;51.456;-0.916;2022-12-05T04:50:11;101469.88;;;19.22;23.78
73862;BME280;63459;51.456;-0.916;2022-12-05T04:52:35;101474.53;;;19.26;23.74
73862;BME280;63459;51.456;-0.916;2022-12-05T04:55:05;101474.46;;;19.24;23.75
73862;BME280;63459;51.456;-0.916;2022-12-05T04:57:30;101478.67;;;18.84;23.75
73862;BME280;63459;51.456;-0.916;2022-12-05T04:59:51;101484.43;;;19.86;23.75
73862;BME280;63459;51.456;-0.916;2022-12-05T05:07:09;101490.96;;;19.41;23.59
73862;BME280;63459;51.456;-0.916;2022-12-05T05:09:33;101490.30;;;19.45;23.55
73862;BME280;63459;51.456;-0.916;2022-12-05T05:11:58;101490.25;;;19.92;23.51
73862;BME280;63459;51.456;-0.916;2022-12-05T05:16:49;101491.52;;;19.94;23.50
73862;BME280;63459;51.456;-0.916;2022-12-05T05:21:41;101486.96;;;18.95;23.40
73862;BME280;63459;51.456;-0.916;2022-12-05T05:24:07;101488.37;;;19.63;23.34
73862;BME280;63459;51.456;-0.916;2022-12-05T05:26:38;101491.57;;;19.62;23.34
73862;BME280;63459;51.456;-0.916;2022-12-05T05:28:57;101487.83;;;19.38;23.30
73862;BME280;63459;51.456;-0.916;2022-12-05T05:31:22;101487.51;;;19.64;23.14
73862;BME280;63459;51.456;-0.916;2022-12-05T05:33:48;101489.87;;;20.02;23.17
73862;BME280;63459;51.456;-0.916;2022-12-05T05:38:40;101495.70;;;19.76;23.17
73862;BME280;63459;51.456;-0.916;2022-12-05T05:41:04;101491.59;;;19.13;23.18
73862;BME280;63459;51.456;-0.916;2022-12-05T05:43:29;101493.15;;;19.13;23.18
73862;BME280;63459;51.456;-0.916;2022-12-05T05:45:54;101499.37;;;19.74;23.22
73862;BME280;63459;51.456;-0.916;2022-12-05T05:48:19;101502.52;;;19.93;23.22
73862;BME280;63459;51.456;-0.916;2022-12-05T05:50:45;101498.59;;;19.35;23.13
73862;BME280;63459;51.456;-0.916;2022-12-05T05:53:10;101501.98;;;19.54;23.16
73862;BME280;63459;51.456;-0.916;2022-12-05T05:55:38;101508.98;;;19.13;23.18
73862;BME280;63459;51.456;-0.916;2022-12-05T05:58:01;101512.72;;;19.64;22.93
73862;BME280;63459;51.456;-0.916;2022-12-05T06:02:53;101518.63;;;19.62;23.00
73862;BME280;63459;51.456;-0.916;2022-12-05T06:07:43;101525.88;;;19.58;22.94
73862;BME280;63459;51.456;-0.916;2022-12-05T06:12:34;101524.37;;;19.42;22.90
73862;BME280;63459;51.456;-0.916;2022-12-05T06:15:00;101527.95;;;19.62;22.92
73862;BME280;63459;51.456;-0.916;2022-12-05T06:17:25;101534.48;;;19.60;22.87
73862;BME280;63459;51.456;-0.916;2022-12-05T06:19:50;101533.81;;;19.77;22.90
73862;BME280;63459;51.456;-0.916;2022-12-05T06:22:16;101536.73;;;19.86;22.80
73862;BME280;63459;51.456;-0.916;2022-12-05T06:24:41;101541.21;;;19.20;22.81
73862;BME280;63459;51.456;-0.916;2022-12-05T06:27:07;101537.60;;;19.48;22.55
73862;BME280;63459;51.456;-0.916;2022-12-05T06:29:33;101539.12;;;19.92;22.56
73862;BME280;63459;51.456;-0.916;2022-12-05T06:31:57;101540.34;;;20.15;22.51
73862;BME280;63459;51.456;-0.916;2022-12-05T06:34:22;101540.85;;;19.69;22.55
73862;BME280;63459;51.456;-0.916;2022-12-05T06:39:13;101544.00;;;20.32;22.53
73862;BME280;63459;51.456;-0.916;2022-12-05T06:44:03;101545.15;;;19.69;22.55
73862;BME280;63459;51.456;-0.916;2022-12-05T06:46:29;101545.38;;;20.36;22.52
73862;BME280;63459;51.456;-0.916;2022-12-05T06:48:56;101540.50;;;19.92;22.55
73862;BME280;63459;51.456;-0.916;2022-12-05T06:51:20;101543.48;;;19.50;22.53
73862;BME280;63459;51.456;-0.916;2022-12-05T06:53:46;101541.19;;;19.47;22.49
73862;BME280;63459;51.456;-0.916;2022-12-05T06:56:14;101542.80;;;19.86;22.49
73862;BME280;63459;51.456;-0.916;2022-12-05T06:58:36;101542.10;;;19.68;22.45
73862;BME280;63459;51.456;-0.916;2022-12-05T07:01:02;101538.81;;;19.44;22.51
73862;BME280;63459;51.456;-0.916;2022-12-05T07:03:27;101538.29;;;19.48;22.46
73862;BME280;63459;51.456;-0.916;2022-12-05T07:08:17;101535.97;;;19.77;22.42
73862;BME280;63459;51.456;-0.916;2022-12-05T07:10:49;101538.43;;;20.18;22.44
73862;BME280;63459;51.456;-0.916;2022-12-05T07:13:08;101550.96;;;19.75;22.44
73862;BME280;63459;51.456;-0.916;2022-12-05T07:15:33;101557.19;;;19.94;22.43
73862;BME280;63459;51.456;-0.916;2022-12-05T07:17:59;101559.47;;;19.76;22.41
73862;BME280;63459;51.456;-0.916;2022-12-05T07:20:24;101559.44;;;19.96;22.45
73862;BME280;63459;51.456;-0.916;2022-12-05T07:22:50;101564.83;;;20.15;22.41
73862;BME280;63459;51.456;-0.916;2022-12-05T07:25:15;101573.31;;;19.75;22.38
73862;BME280;63459;51.456;-0.916;2022-12-05T07:27:40;101573.26;;;19.78;22.41
73862;BME280;63459;51.456;-0.916;2022-12-05T07:30:07;101573.23;;;20.00;22.43
73862;BME280;63459;51.456;-0.916;2022-12-05T07:32:32;101571.38;;;19.33;22.47
73862;BME280;63459;51.456;-0.916;2022-12-05T07:34:58;101575.15;;;20.00;22.42
73862;BME280;63459;51.456;-0.916;2022-12-05T07:37:23;101575.64;;;20.04;22.43
73862;BME280;63459;51.456;-0.916;2022-12-05T07:42:14;101586.43;;;19.66;22.41
73862;BME280;63459;51.456;-0.916;2022-12-05T07:44:40;101589.70;;;20.17;22.37
73862;BME280;63459;51.456;-0.916;2022-12-05T07:47:05;101596.29;;;19.91;22.42
73862;BME280;63459;51.456;-0.916;2022-12-05T07:49:30;101597.92;;;20.14;22.43
73862;BME280;63459;51.456;-0.916;2022-12-05T07:51:56;101601.42;;;19.94;22.47
73862;BME280;63459;51.456;-0.916;2022-12-05T07:54:21;101607.88;;;19.74;22.43
73862;BME280;63459;51.456;-0.916;2022-12-05T07:56:46;101610.18;;;19.93;22.45
73862;BME280;63459;51.456;-0.916;2022-12-05T07:59:11;101613.19;;;19.69;22.48
73862;BME280;63459;51.456;-0.916;2022-12-05T08:01:36;101619.28;;;20.12;22.51
73862;BME280;63459;51.456;-0.916;2022-12-05T08:04:02;101622.91;;;19.45;22.53
73862;BME280;63459;51.456;-0.916;2022-12-05T08:06:29;101631.80;;;20.38;22.46
73862;BME280;63459;51.456;-0.916;2022-12-05T08:08:55;101631.47;;;20.37;22.47
73862;BME280;63459;51.456;-0.916;2022-12-05T08:11:21;101637.12;;;19.92;22.47
73862;BME280;63459;51.456;-0.916;2022-12-05T08:13:45;101634.92;;;19.70;22.51
73862;BME280;63459;51.456;-0.916;2022-12-05T08:16:12;101640.31;;;19.69;22.54
73862;BME280;63459;51.456;-0.916;2022-12-05T08:18:37;101649.56;;;19.93;22.54
73862;BME280;63459;51.456;-0.916;2022-12-05T08:21:03;101654.34;;;19.96;22.52
73862;BME280;63459;51.456;-0.916;2022-12-05T08:23:28;101656.70;;;20.38;22.55
73862;BME280;63459;51.456;-0.916;2022-12-05T08:25:52;101659.33;;;20.16;22.55
73862;BME280;63459;51.456;-0.916;2022-12-05T08:28:18;101656.74;;;19.94;22.62
73862;BME280;63459;51.456;-0.916;2022-12-05T08:30:43;101652.86;;;20.45;22.56
73862;BME280;63459;51.456;-0.916;2022-12-05T08:33:09;101653.13;;;20.52;22.49
73862;BME280;63459;51.456;-0.916;2022-12-05T08:37:59;101647.65;;;19.92;22.45
73862;BME280;63459;51.456;-0.916;2022-12-05T08:40:24;101649.53;;;20.16;22.43
73862;BME280;63459;51.456;-0.916;2022-12-05T08:42:50;101650.06;;;19.71;22.46
73862;BME280;63459;51.456;-0.916;2022-12-05T08:47:40;101660.94;;;20.04;22.39
73862;BME280;63459;51.456;-0.916;2022-12-05T08:50:07;101661.59;;;19.78;22.45
73862;BME280;63459;51.456;-0.916;2022-12-05T08:52:31;101660.37;;;19.84;22.41
73862;BME280;63459;51.456;-0.916;2022-12-05T08:54:57;101659.70;;;19.83;22.39
73862;BME280;63459;51.456;-0.916;2022-12-05T08:57:22;101660.13;;;20.11;22.37
73862;BME280;63459;51.456;-0.916;2022-12-05T08:59:47;101659.27;;;20.35;22.36
73862;BME280;63459;51.456;-0.916;2022-12-05T09:02:12;101661.87;;;20.37;22.37
73862;BME280;63459;51.456;-0.916;2022-12-05T09:04:38;101659.85;;;20.39;22.34
73862;BME280;63459;51.456;-0.916;2022-12-05T09:07:04;101657.88;;;20.64;22.34
73862;BME280;63459;51.456;-0.916;2022-12-05T09:09:29;101665.81;;;20.06;22.32
73862;BME280;63459;51.456;-0.916;2022-12-05T09:11:54;101660.36;;;20.08;22.34
73862;BME280;63459;51.456;-0.916;2022-12-05T09:14:20;101661.90;;;20.11;22.35
73862;BME280;63459;51.456;-0.916;2022-12-05T09:16:46;101659.67;;;20.56;22.34
73862;BME280;63459;51.456;-0.916;2022-12-05T09:19:12;101666.33;;;20.14;22.34
73862;BME280;63459;51.456;-0.916;2022-12-05T09:21:36;101664.68;;;20.45;22.29
73862;BME280;63459;51.456;-0.916;2022-12-05T09:24:02;101672.07;;;19.97;22.35
73862;BME280;63459;51.456;-0.916;2022-12-05T09:26:28;101672.13;;;20.40;22.39
73862;BME280;63459;51.456;-0.916;2022-12-05T09:28:53;101672.13;;;20.46;22.35
73862;BME280;63459;51.456;-0.916;2022-12-05T09:33:45;101680.00;;;20.51;22.39
73862;BME280;63459;51.456;-0.916;2022-12-05T09:36:12;101678.53;;;20.79;22.37
73862;BME280;63459;51.456;-0.916;2022-12-05T09:38:35;101682.78;;;20.24;22.33
73862;BME280;63459;51.456;-0.916;2022-12-05T09:41:09;101680.46;;;20.44;22.38
73862;BME280;63459;51.456;-0.916;2022-12-05T09:43:31;101683.23;;;20.30;22.34
73862;BME280;63459;51.456;-0.916;2022-12-05T09:45:56;101687.79;;;20.94;22.39
73862;BME280;63459;51.456;-0.916;2022-12-05T09:48:21;101687.42;;;20.54;22.40
73862;BME280;63459;51.456;-0.916;2022-12-05T09:50:44;101696.55;;;21.01;22.41
73862;BME280;63459;51.456;-0.916;2022-12-05T09:53:12;101697.96;;;20.78;22.49
73862;BME280;63459;51.456;-0.916;2022-12-05T09:55:38;101698.17;;;20.81;22.51
73862;BME280;63459;51.456;-0.916;2022-12-05T09:57:59;101698.36;;;20.22;22.51
73862;BME280;63459;51.456;-0.916;2022-12-05T10:00:25;101701.10;;;21.37;22.50
73862;BME280;63459;51.456;-0.916;2022-12-05T10:02:57;101705.74;;;20.95;22.54
73862;BME280;63459;51.456;-0.916;2022-12-05T10:05:20;101710.73;;;20.51;22.60
73862;BME280;63459;51.456;-0.916;2022-12-05T10:07:43;101713.66;;;20.95;22.66
73862;BME280;63459;51.456;-0.916;2022-12-05T10:12:40;101712.84;;;20.74;22.75
73862;BME280;63459;51.456;-0.916;2022-12-05T10:15:01;101712.48;;;20.75;22.76
73862;BME280;63459;51.456;-0.916;2022-12-05T10:17:25;101712.31;;;20.79;22.77
73862;BME280;63459;51.456;-0.916;2022-12-05T10:19:46;101714.02;;;20.63;22.76
73862;BME280;63459;51.456;-0.916;2022-12-05T10:22:13;101709.48;;;20.86;22.78
73862;BME280;63459;51.456;-0.916;2022-12-05T10:24:39;101707.35;;;20.89;22.79
73862;BME280;63459;51.456;-0.916;2022-12-05T10:27:05;101707.84;;;20.66;22.80
73862;BME280;63459;51.456;-0.916;2022-12-05T10:29:30;101706.14;;;21.08;22.85
73862;BME280;63459;51.456;-0.916;2022-12-05T10:32:00;101702.08;;;21.05;22.91
73862;BME280;63459;51.456;-0.916;2022-12-05T10:34:27;101707.70;;;20.84;22.98
73862;BME280;63459;51.456;-0.916;2022-12-05T10:36:52;101705.60;;;21.35;22.90
73862;BME280;63459;51.456;-0.916;2022-12-05T10:39:09;101700.57;;;20.93;22.92
73862;BME280;63459;51.456;-0.916;2022-12-05T10:41:34;101700.45;;;21.10;23.00
73862;BME280;63459;51.456;-0.916;2022-12-05T10:44:00;101705.46;;;20.51;23.03
73862;BME280;63459;51.456;-0.916;2022-12-05T10:46:25;101701.35;;;20.76;22.99
73862;BME280;63459;51.456;-0.916;2022-12-05T10:51:19;101703.90;;;20.83;22.94
73862;BME280;63459;51.456;-0.916;2022-12-05T10:53:43;101700.64;;;21.01;23.00
73862;BME280;63459;51.456;-0.916;2022-12-05T10:58:31;101704.10;;;21.26;22.98
73862;BME280;63459;51.456;-0.916;2022-12-05T11:01:07;101701.82;;;20.89;22.97
73862;BME280;63459;51.456;-0.916;2022-12-05T11:03:26;101696.94;;;21.59;22.93
73862;BME280;63459;51.456;-0.916;2022-12-05T11:05:48;101695.07;;;20.98;22.96
73862;BME280;63459;51.456;-0.916;2022-12-05T11:08:21;101693.38;;;21.26;22.91
73862;BME280;63459;51.456;-0.916;2022-12-05T11:10:38;101689.96;;;21.29;22.89
73862;BME280;63459;51.456;-0.916;2022-12-05T11:13:13;101700.81;;;20.93;22.81
73862;BME280;63459;51.456;-0.916;2022-12-05T11:15:30;101699.94;;;21.47;22.70
73862;BME280;63459;51.456;-0.916;2022-12-05T11:17:56;101701.70;;;21.26;22.66
73862;BME280;63459;51.456;-0.916;2022-12-05T11:22:48;101693.01;;;20.85;22.68
73862;BME280;63459;51.456;-0.916;2022-12-05T11:27:36;101696.36;;;21.56;22.62
73862;BME280;63459;51.456;-0.916;2022-12-05T11:30:17;101691.29;;;21.75;22.65
73862;BME280;63459;51.456;-0.916;2022-12-05T11:32:30;101694.22;;;21.52;22.63
73862;BME280;63459;51.456;-0.916;2022-12-05T11:37:23;101693.25;;;21.33;22.60
73862;BME280;63459;51.456;-0.916;2022-12-05T11:39:44;101689.66;;;21.55;22.65
73862;BME280;63459;51.456;-0.916;2022-12-05T11:42:18;101689.60;;;21.60;22.62
73862;BME280;63459;51.456;-0.916;2022-12-05T11:44:48;101690.95;;;21.40;22.62
73862;BME280;63459;51.456;-0.916;2022-12-05T11:47:11;101687.89;;;21.45;22.59
73862;BME280;63459;51.456;-0.916;2022-12-05T11:52:14;101693.15;;;21.76;22.52
73862;BME280;63459;51.456;-0.916;2022-12-05T11:54:32;101690.47;;;21.54;22.49
73862;BME280;63459;51.456;-0.916;2022-12-05T11:56:47;101693.99;;;21.33;22.48
73862;BME280;63459;51.456;-0.916;2022-12-05T11:59:18;101691.92;;;21.80;22.48
73862;BME280;63459;51.456;-0.916;2022-12-05T12:01:41;101692.37;;;21.39;22.50
73862;BME280;63459;51.456;-0.916;2022-12-05T12:04:16;101690.61;;;21.68;22.55
